createdAt,value
2019-02-16T00:02:26.597Z,9.52
2019-02-16T00:04:59.111Z,9.47
2019-02-16T00:07:32.426Z,9.38
2019-02-16T00:10:06.537Z,9.35
2019-02-16T00:12:40.990Z,9.33
2019-02-16T00:15:16.671Z,9.33
2019-02-16T00:17:49.877Z,9.30
2019-02-16T00:20:23.860Z,9.35
2019-02-16T00:22:58.098Z,9.32
2019-02-16T00:25:32.252Z,9.32
2019-02-16T00:28:06.682Z,9.30
2019-02-16T00:30:39.537Z,9.25
2019-02-16T00:33:14.500Z,9.21
2019-02-16T00:35:47.131Z,9.21
2019-02-16T00:38:19.645Z,9.11
2019-02-16T00:40:54.799Z,9.08
2019-02-16T00:43:27.249Z,9.06
2019-02-16T00:46:00.303Z,9.05
2019-02-16T00:48:33.175Z,9.07
2019-02-16T00:51:13.257Z,9.04
2019-02-16T00:53:49.470Z,9.01
2019-02-16T00:56:23.315Z,9.03
2019-02-16T00:58:56.076Z,9.04
2019-02-16T01:01:28.660Z,8.92
2019-02-16T01:04:05.358Z,8.83
2019-02-16T01:06:38.603Z,8.80
2019-02-16T01:09:12.229Z,8.83
2019-02-16T01:11:47.343Z,8.82
2019-02-16T01:14:19.859Z,8.74
2019-02-16T01:16:52.472Z,8.74
2019-02-16T01:19:26.347Z,8.73
2019-02-16T01:21:58.859Z,8.67
2019-02-16T01:24:32.671Z,8.61
2019-02-16T01:27:08.247Z,8.64
2019-02-16T01:29:40.695Z,8.71
2019-02-16T01:32:13.299Z,8.72
2019-02-16T01:34:46.653Z,8.74
2019-02-16T01:37:19.462Z,8.78
2019-02-16T01:39:52.060Z,8.81
2019-02-16T01:42:29.189Z,8.79
2019-02-16T01:45:05.353Z,8.73
2019-02-16T01:47:38.632Z,8.66
2019-02-16T01:50:11.614Z,8.73
2019-02-16T01:52:45.110Z,8.80
2019-02-16T01:55:18.718Z,8.76
2019-02-16T01:57:53.471Z,8.76
2019-02-16T02:00:25.984Z,8.79
2019-02-16T02:03:00.061Z,8.76
2019-02-16T02:05:34.038Z,8.81
2019-02-16T02:08:08.044Z,8.85
2019-02-16T02:10:40.680Z,8.84
2019-02-16T02:13:13.599Z,8.75
2019-02-16T02:15:47.276Z,8.69
2019-02-16T02:18:19.969Z,8.64
2019-02-16T02:20:52.948Z,8.65
2019-02-16T02:23:26.072Z,8.63
2019-02-16T02:25:58.748Z,8.62
2019-02-16T02:28:33.804Z,8.62
2019-02-16T02:31:08.216Z,8.62
2019-02-16T02:33:40.751Z,8.67
2019-02-16T02:36:14.510Z,8.68
2019-02-16T02:38:47.175Z,8.71
2019-02-16T02:41:21.337Z,8.70
2019-02-16T02:43:54.327Z,8.72
2019-02-16T02:46:26.838Z,8.69
2019-02-16T02:48:59.440Z,8.67
2019-02-16T02:51:32.241Z,8.61
2019-02-16T02:54:04.878Z,8.60
2019-02-16T02:56:37.442Z,8.56
2019-02-16T02:59:10.414Z,8.51
2019-02-16T03:01:43.010Z,8.46
2019-02-16T03:04:15.600Z,8.46
2019-02-16T03:06:51.384Z,8.49
2019-02-16T03:09:23.968Z,8.48
2019-02-16T03:11:57.610Z,8.41
2019-02-16T03:14:31.650Z,8.37
2019-02-16T03:17:04.194Z,8.40
2019-02-16T03:19:36.719Z,8.40
2019-02-16T03:22:10.259Z,8.35
2019-02-16T03:24:43.883Z,8.35
2019-02-16T03:28:15.845Z,8.34
2019-02-16T03:31:25.215Z,8.43
2019-02-16T03:34:09.340Z,8.47
2019-02-16T03:37:07.265Z,8.46
2019-02-16T03:39:45.435Z,8.43
2019-02-16T03:42:18.943Z,8.37
2019-02-16T03:44:51.489Z,8.32
2019-02-16T03:47:24.447Z,8.24
2019-02-16T03:49:57.073Z,8.14
2019-02-16T03:52:29.809Z,8.03
2019-02-16T03:55:02.677Z,7.92
2019-02-16T03:57:35.174Z,7.79
2019-02-16T04:00:08.636Z,7.60
2019-02-16T04:02:41.797Z,7.54
2019-02-16T04:05:14.618Z,7.49
2019-02-16T04:07:47.142Z,7.32
2019-02-16T04:10:20.995Z,7.09
2019-02-16T04:12:53.475Z,6.89
2019-02-16T04:15:30.514Z,6.74
2019-02-16T04:18:04.079Z,6.59
2019-02-16T04:20:37.298Z,6.48
2019-02-16T04:23:10.307Z,6.38
2019-02-16T04:25:42.794Z,6.24
2019-02-16T04:28:15.337Z,6.09
2019-02-16T04:30:48.264Z,6.01
2019-02-16T04:33:20.923Z,5.96
2019-02-16T04:35:53.780Z,5.96
2019-02-16T04:38:28.155Z,5.88
2019-02-16T04:41:00.749Z,5.76
2019-02-16T04:43:33.274Z,5.69
2019-02-16T04:46:06.045Z,5.68
2019-02-16T04:48:38.595Z,5.70
2019-02-16T04:51:11.552Z,5.74
2019-02-16T04:53:44.498Z,5.77
2019-02-16T04:56:16.939Z,5.85
2019-02-16T04:58:49.611Z,5.87
2019-02-16T05:01:22.803Z,5.87
2019-02-16T05:03:55.290Z,5.90
2019-02-16T05:06:27.972Z,5.94
2019-02-16T05:09:03.361Z,5.94
2019-02-16T05:11:35.701Z,5.98
2019-02-16T05:14:08.207Z,5.94
2019-02-16T05:16:40.997Z,5.97
2019-02-16T05:19:14.184Z,6.03
2019-02-16T05:21:46.761Z,6.13
2019-02-16T05:24:19.942Z,6.25
2019-02-16T05:26:53.584Z,6.37
2019-02-16T05:29:26.130Z,6.39
2019-02-16T05:31:58.890Z,6.49
2019-02-16T05:34:32.069Z,6.60
2019-02-16T05:37:04.665Z,6.69
2019-02-16T05:39:39.306Z,6.69
2019-02-16T05:42:12.091Z,6.78
2019-02-16T05:44:44.651Z,6.83
2019-02-16T05:47:19.278Z,6.97
2019-02-16T05:49:59.854Z,7.05
2019-02-16T05:52:33.659Z,7.07
2019-02-16T05:55:07.214Z,7.04
2019-02-16T05:57:39.577Z,7.04
2019-02-16T06:00:17.780Z,6.98
2019-02-16T06:02:50.263Z,6.99
2019-02-16T06:05:22.890Z,6.97
2019-02-16T06:07:55.426Z,6.87
2019-02-16T06:10:28.257Z,6.87
2019-02-16T06:13:00.786Z,6.84
2019-02-16T06:15:33.362Z,6.91
2019-02-16T06:18:06.456Z,6.89
2019-02-16T06:20:39.217Z,6.92
2019-02-16T06:23:11.730Z,6.88
2019-02-16T06:25:48.515Z,6.94
2019-02-16T06:28:21.955Z,6.89
2019-02-16T06:30:54.569Z,6.90
2019-02-16T06:33:27.417Z,6.90
2019-02-16T06:36:13.861Z,6.82
2019-02-16T06:38:46.681Z,6.80
2019-02-16T06:41:19.707Z,6.78
2019-02-16T06:43:54.115Z,6.77
2019-02-16T06:46:26.673Z,6.73
2019-02-16T06:49:06.827Z,6.63
2019-02-16T06:51:42.021Z,6.54
2019-02-16T06:54:15.237Z,6.54
2019-02-16T06:56:54.307Z,6.55
2019-02-16T06:59:31.460Z,6.52
2019-02-16T07:02:04.518Z,6.47
2019-02-16T07:04:39.292Z,6.46
2019-02-16T07:07:11.833Z,6.50
2019-02-16T07:09:44.539Z,6.42
2019-02-16T07:12:18.671Z,6.35
2019-02-16T07:14:51.703Z,6.32
2019-02-16T07:17:48.815Z,6.39
2019-02-16T07:20:33.248Z,6.44
2019-02-16T07:23:06.581Z,6.45
2019-02-16T07:25:39.465Z,6.49
2019-02-16T07:28:12.991Z,6.53
2019-02-16T07:30:46.221Z,6.55
2019-02-16T07:33:20.084Z,6.64
2019-02-16T07:35:52.524Z,6.69
2019-02-16T07:38:25.998Z,6.74
2019-02-16T07:41:00.254Z,6.84
2019-02-16T07:43:40.827Z,6.98
2019-02-16T07:46:24.235Z,7.07
2019-02-16T07:49:06.584Z,7.18
2019-02-16T07:51:45.373Z,7.28
2019-02-16T07:54:29.392Z,7.27
2019-02-16T07:57:21.739Z,7.31
2019-02-16T08:00:15.314Z,7.27
2019-02-16T08:03:01.686Z,7.23
2019-02-16T08:05:59.175Z,7.17
2019-02-16T08:08:55.724Z,7.15
2019-02-16T08:11:50.009Z,7.08
2019-02-16T08:14:31.530Z,7.07
2019-02-16T08:17:23.619Z,7.23
2019-02-16T08:20:05.144Z,7.43
2019-02-16T08:22:46.394Z,7.64
2019-02-16T08:25:30.780Z,7.78
2019-02-16T08:28:14.271Z,7.85
2019-02-16T08:30:53.854Z,8.03
2019-02-16T08:33:34.072Z,8.22
2019-02-16T08:36:18.593Z,8.41
2019-02-16T08:39:13.478Z,8.55
2019-02-16T08:42:04.555Z,8.82
2019-02-16T08:44:59.131Z,9.02
2019-02-16T08:47:46.905Z,9.21
2019-02-16T08:50:29.602Z,9.42
2019-02-16T08:53:09.117Z,9.57
2019-02-16T08:55:48.296Z,9.73
2019-02-16T08:58:44.500Z,9.80
2019-02-16T09:01:23.795Z,9.90
2019-02-16T09:04:18.121Z,10.02
2019-02-16T09:07:21.505Z,10.14
2019-02-16T09:10:14.886Z,10.23
2019-02-16T09:13:19.616Z,10.31
2019-02-16T09:16:13.798Z,10.37
2019-02-16T09:19:05.723Z,10.48
2019-02-16T09:21:48.647Z,10.66
2019-02-16T09:24:45.506Z,10.81
2019-02-16T09:27:39.923Z,10.91
2019-02-16T09:31:06.114Z,11.01
2019-02-16T09:34:14.371Z,11.07
2019-02-16T09:36:53.343Z,11.22
2019-02-16T09:39:44.981Z,11.54
2019-02-16T09:42:29.079Z,12.46
2019-02-16T09:45:26.090Z,13.41
2019-02-16T09:48:18.570Z,14.04
2019-02-16T09:51:01.203Z,14.44
2019-02-16T09:53:56.356Z,14.85
2019-02-16T09:56:48.901Z,15.13
2019-02-16T09:59:38.687Z,15.19
2019-02-16T10:02:24.067Z,14.92
2019-02-16T10:05:08.326Z,14.81
2019-02-16T10:07:52.361Z,14.78
2019-02-16T10:10:31.461Z,14.88
2019-02-16T10:13:17.798Z,14.75
2019-02-16T10:16:12.493Z,14.93
2019-02-16T10:19:02.062Z,15.09
2019-02-16T10:21:54.507Z,15.04
2019-02-16T10:24:43.751Z,15.29
2019-02-16T10:27:21.975Z,15.63
2019-02-16T10:30:14.838Z,15.90
2019-02-16T10:33:02.418Z,15.82
2019-02-16T10:35:43.044Z,15.68
2019-02-16T10:38:41.928Z,15.68
2019-02-16T10:41:30.716Z,15.73
2019-02-16T10:44:13.475Z,15.88
2019-02-16T10:46:59.588Z,15.74
2019-02-16T10:49:55.689Z,15.67
2019-02-16T10:52:47.775Z,15.81
2019-02-16T10:55:41.467Z,15.75
2019-02-16T10:58:55.203Z,15.83
2019-02-16T11:02:02.234Z,16.07
2019-02-16T11:05:01.419Z,16.12
2019-02-16T11:07:41.699Z,16.27
2019-02-16T11:10:22.528Z,16.35
2019-02-16T11:13:05.700Z,16.56
2019-02-16T11:15:46.130Z,16.67
2019-02-16T11:18:41.282Z,16.93
2019-02-16T11:21:25.578Z,17.02
2019-02-16T11:24:07.163Z,17.23
2019-02-16T11:26:56.746Z,17.16
2019-02-16T11:29:45.873Z,17.01
2019-02-16T11:32:39.138Z,17.03
2019-02-16T11:35:24.989Z,17.05
2019-02-16T11:38:03.515Z,17.31
2019-02-16T11:40:43.156Z,17.65
2019-02-16T11:43:24.270Z,17.57
2019-02-16T11:46:17.694Z,17.63
2019-02-16T11:49:13.754Z,17.69
2019-02-16T11:52:10.911Z,17.55
2019-02-16T11:54:53.975Z,17.60
2019-02-16T11:57:40.440Z,17.48
2019-02-16T12:00:26.856Z,17.49
2019-02-16T12:03:09.289Z,17.57
2019-02-16T12:05:48.844Z,17.95
2019-02-16T12:08:35.332Z,18.29
2019-02-16T12:11:23.334Z,18.16
2019-02-16T12:14:11.448Z,18.16
2019-02-16T12:16:56.365Z,18.37
2019-02-16T12:19:55.142Z,18.23
2019-02-16T12:22:49.368Z,18.27
2019-02-16T12:25:33.453Z,18.44
2019-02-16T12:28:12.241Z,18.32
2019-02-16T12:30:57.707Z,18.15
2019-02-16T12:33:36.507Z,18.17
2019-02-16T12:36:33.350Z,18.03
2019-02-16T12:39:24.017Z,17.93
2019-02-16T12:42:05.542Z,17.79
2019-02-16T12:44:51.070Z,17.63
2019-02-16T12:47:39.900Z,17.49
2019-02-16T12:50:20.344Z,17.47
2019-02-16T12:53:05.792Z,17.73
2019-02-16T12:55:47.309Z,17.68
2019-02-16T12:58:48.638Z,17.70
2019-02-16T13:01:44.300Z,17.70
2019-02-16T13:04:44.536Z,17.64
2019-02-16T13:10:52.365Z,18.31
2019-02-16T13:13:33.039Z,18.26
2019-02-16T13:16:29.748Z,18.17
2019-02-16T13:19:33.995Z,18.09
2019-02-16T13:22:14.017Z,18.02
2019-02-16T13:25:07.087Z,18.09
2019-02-16T13:28:00.684Z,18.03
2019-02-16T13:30:44.802Z,18.02
2019-02-16T13:33:38.809Z,18.15
2019-02-16T13:36:28.676Z,18.29
2019-02-16T13:39:16.195Z,18.10
2019-02-16T13:42:11.294Z,17.98
2019-02-16T13:44:56.708Z,17.96
2019-02-16T13:47:45.324Z,17.84
2019-02-16T13:50:25.159Z,17.76
2019-02-16T13:53:03.839Z,17.82
2019-02-16T13:55:46.232Z,17.94
2019-02-16T13:58:33.116Z,18.09
2019-02-16T14:01:21.075Z,18.11
2019-02-16T14:04:19.239Z,18.20
2019-02-16T14:07:17.684Z,18.32
2019-02-16T14:10:07.394Z,18.35
2019-02-16T14:12:52.333Z,18.23
2019-02-16T14:15:45.729Z,18.17
2019-02-16T14:18:22.294Z,18.27
2019-02-16T14:20:55.808Z,18.17
2019-02-16T14:23:29.766Z,17.97
2019-02-16T14:26:04.341Z,17.93
2019-02-16T14:28:37.045Z,17.86
2019-02-16T14:31:11.148Z,17.93
2019-02-16T14:33:44.483Z,17.85
2019-02-16T14:36:18.158Z,17.68
2019-02-16T14:39:01.459Z,17.61
2019-02-16T14:41:35.453Z,17.71
2019-02-16T14:44:09.150Z,17.73
2019-02-16T14:46:43.399Z,17.77
2019-02-16T14:49:17.615Z,17.68
2019-02-16T14:51:52.584Z,17.74
2019-02-16T14:54:30.237Z,17.63
2019-02-16T14:57:04.261Z,17.58
2019-02-16T14:59:37.367Z,17.60
2019-02-16T15:02:12.032Z,17.61
2019-02-16T15:04:45.253Z,17.66
2019-02-16T15:07:19.388Z,17.72
2019-02-16T15:09:55.544Z,17.67
2019-02-16T15:12:28.346Z,17.66
2019-02-16T15:15:10.107Z,17.69
2019-02-16T15:17:46.591Z,17.73
2019-02-16T15:20:23.317Z,17.72
2019-02-16T15:22:58.632Z,17.73
2019-02-16T15:25:34.044Z,17.77
2019-02-16T15:28:07.704Z,17.71
2019-02-16T15:30:41.755Z,17.63
2019-02-16T15:33:14.802Z,17.60
2019-02-16T15:35:47.356Z,17.67
2019-02-16T15:38:20.072Z,17.72
2019-02-16T15:40:53.719Z,17.71
2019-02-16T15:43:27.192Z,17.70
2019-02-16T15:46:08.249Z,17.69
2019-02-16T15:48:41.245Z,17.67
2019-02-16T15:51:15.263Z,17.66
2019-02-16T15:53:50.398Z,17.53
2019-02-16T15:56:23.778Z,17.33
2019-02-16T15:58:59.657Z,17.20
2019-02-16T16:01:37.284Z,16.98
2019-02-16T16:04:12.370Z,16.80
2019-02-16T16:06:46.599Z,16.65
2019-02-16T16:09:34.587Z,16.46
2019-02-16T16:12:20.655Z,16.30
2019-02-16T16:15:03.542Z,16.14
2019-02-16T16:17:47.426Z,15.97
2019-02-16T16:20:25.717Z,15.83
2019-02-16T16:23:10.794Z,15.63
2019-02-16T16:25:52.396Z,15.41
2019-02-16T16:28:35.488Z,15.21
2019-02-16T16:31:13.484Z,15.01
2019-02-16T16:33:51.715Z,14.83
2019-02-16T16:36:51.806Z,14.63
2019-02-16T16:39:42.475Z,14.43
2019-02-16T16:42:41.963Z,14.27
2019-02-16T16:45:24.238Z,14.10
2019-02-16T16:48:03.159Z,13.96
2019-02-16T16:50:55.961Z,13.81
2019-02-16T16:53:46.902Z,13.62
2019-02-16T16:56:28.883Z,13.48
2019-02-16T16:59:07.862Z,13.22
2019-02-16T17:01:54.392Z,12.84
2019-02-16T17:04:36.239Z,12.51
2019-02-16T17:07:14.748Z,12.20
2019-02-16T17:09:58.448Z,11.94
2019-02-16T17:12:38.071Z,11.68
2019-02-16T17:15:31.038Z,11.44
2019-02-16T17:18:19.669Z,11.22
2019-02-16T17:21:09.252Z,10.98
2019-02-16T17:23:59.355Z,10.76
2019-02-16T17:26:45.595Z,10.55
2019-02-16T17:29:24.126Z,10.32
2019-02-16T17:32:19.164Z,10.20
2019-02-16T17:34:58.882Z,10.03
2019-02-16T17:37:46.539Z,9.85
2019-02-16T17:40:27.610Z,9.66
2019-02-16T17:43:07.272Z,9.52
2019-02-16T17:45:56.770Z,9.40
2019-02-16T17:48:38.972Z,9.23
2019-02-16T17:51:34.670Z,9.03
2019-02-16T17:54:28.770Z,8.82
2019-02-16T17:57:22.343Z,8.74
2019-02-16T18:00:05.635Z,8.71
2019-02-16T18:02:50.301Z,8.56
2019-02-16T18:05:47.457Z,8.35
2019-02-16T18:08:44.739Z,8.14
2019-02-16T18:11:46.471Z,7.91
2019-02-16T18:14:45.057Z,7.79
2019-02-16T18:17:27.582Z,7.66
2019-02-16T18:20:12.745Z,7.56
2019-02-16T18:23:00.475Z,7.46
2019-02-16T18:25:41.878Z,7.34
2019-02-16T18:28:21.115Z,7.16
2019-02-16T18:31:00.543Z,7.00
2019-02-16T18:33:52.567Z,6.91
2019-02-16T18:36:42.151Z,6.82
2019-02-16T18:39:34.634Z,6.68
2019-02-16T18:42:31.754Z,6.56
2019-02-16T18:45:29.127Z,6.44
2019-02-16T18:48:21.878Z,6.34
2019-02-16T18:51:01.915Z,6.19
2019-02-16T18:53:47.307Z,6.16
2019-02-16T18:56:39.824Z,6.20
2019-02-16T18:59:30.440Z,6.24
2019-02-16T19:02:15.372Z,6.10
2019-02-16T19:05:03.691Z,6.08
2019-02-16T19:07:49.119Z,6.06
2019-02-16T19:10:46.301Z,5.87
2019-02-16T19:13:39.127Z,5.72
2019-02-16T19:16:39.355Z,5.61
2019-02-16T19:20:05.115Z,5.61
2019-02-16T19:23:36.423Z,5.49
2019-02-16T19:26:55.355Z,5.54
2019-02-16T19:30:09.784Z,5.53
2019-02-16T19:33:19.705Z,5.33
2019-02-16T19:36:22.381Z,5.14
2019-02-16T19:39:29.232Z,5.12
2019-02-16T19:43:04.723Z,5.11
2019-02-16T19:45:54.542Z,5.01
2019-02-16T19:48:49.441Z,4.88
2019-02-16T19:51:29.545Z,4.82
2019-02-16T19:54:24.927Z,4.80
2019-02-16T19:57:06.218Z,4.75
2019-02-16T20:00:02.000Z,4.77
2019-02-16T20:03:18.071Z,4.72
2019-02-16T20:06:06.844Z,4.57
2019-02-16T20:09:03.415Z,4.49
2019-02-16T20:11:58.452Z,4.48
2019-02-16T20:14:43.715Z,4.41
2019-02-16T20:17:26.938Z,4.61
2019-02-16T20:20:20.144Z,4.71
2019-02-16T20:23:14.637Z,4.91
2019-02-16T20:26:19.584Z,4.85
2019-02-16T20:29:01.570Z,4.59
2019-02-16T20:31:44.426Z,4.47
2019-02-16T20:34:39.494Z,4.43
2019-02-16T20:37:39.266Z,4.24
2019-02-16T20:40:18.862Z,4.11
2019-02-16T20:42:57.434Z,4.05
2019-02-16T20:45:39.493Z,3.99
2019-02-16T20:48:25.510Z,3.93
2019-02-16T20:51:04.754Z,3.96
2019-02-16T20:53:45.504Z,3.91
2019-02-16T20:56:27.152Z,3.74
2019-02-16T20:59:25.530Z,3.59
2019-02-16T21:02:26.571Z,3.68
2019-02-16T21:05:04.719Z,3.71
2019-02-16T21:07:47.296Z,3.62
2019-02-16T21:10:32.439Z,3.50
2019-02-16T21:13:14.823Z,3.39
2019-02-16T21:16:01.827Z,3.30
2019-02-16T21:18:45.847Z,3.23
2019-02-16T21:21:34.707Z,3.14
2019-02-16T21:24:32.159Z,3.15
2019-02-16T21:27:10.506Z,3.06
2019-02-16T21:30:05.378Z,3.17
2019-02-16T21:32:54.534Z,3.15
2019-02-16T21:35:53.227Z,3.29
2019-02-16T21:38:47.442Z,3.27
2019-02-16T21:41:28.187Z,3.31
2019-02-16T21:44:20.368Z,3.43
2019-02-16T21:47:21.241Z,3.53
2019-02-16T21:50:02.708Z,3.51
2019-02-16T21:53:09.832Z,3.42
2019-02-16T21:55:58.809Z,3.40
2019-02-16T21:58:38.336Z,3.50
2019-02-16T22:01:20.747Z,3.45
2019-02-16T22:04:19.392Z,3.25
2019-02-16T22:07:15.458Z,3.17
2019-02-16T22:10:15.394Z,3.17
2019-02-16T22:13:02.517Z,3.14
2019-02-16T22:15:37.058Z,3.13
2019-02-16T22:18:14.508Z,3.06
2019-02-16T22:20:49.519Z,2.93
2019-02-16T22:23:22.148Z,2.87
2019-02-16T22:25:57.210Z,2.84
2019-02-16T22:28:32.500Z,2.76
2019-02-16T22:31:09.450Z,2.64
2019-02-16T22:34:00.118Z,2.55
2019-02-16T22:36:33.812Z,2.52
2019-02-16T22:39:17.281Z,2.50
2019-02-16T22:41:55.603Z,2.49
2019-02-16T22:44:31.510Z,2.65
2019-02-16T22:47:06.510Z,2.80
2019-02-16T22:49:39.769Z,2.96
2019-02-16T22:52:14.923Z,3.07
2019-02-16T22:54:47.813Z,3.05
2019-02-16T22:57:21.206Z,3.05
2019-02-16T22:59:53.964Z,3.14
2019-02-16T23:02:29.131Z,3.19
2019-02-16T23:05:01.721Z,3.25
2019-02-16T23:07:34.372Z,3.17
2019-02-16T23:10:10.511Z,3.20
2019-02-16T23:12:43.631Z,3.22
2019-02-16T23:15:21.620Z,3.06
2019-02-16T23:17:54.302Z,2.93
2019-02-16T23:20:28.495Z,2.84
2019-02-16T23:23:01.020Z,2.77
2019-02-16T23:25:34.704Z,2.68
2019-02-16T23:28:08.703Z,2.61
2019-02-16T23:30:41.327Z,2.48
2019-02-16T23:33:14.468Z,2.38
2019-02-16T23:35:48.920Z,2.34
2019-02-16T23:38:22.294Z,2.32
2019-02-16T23:40:56.050Z,2.27
2019-02-16T23:43:30.549Z,2.37
2019-02-16T23:46:03.808Z,2.45
2019-02-16T23:48:40.839Z,2.48
2019-02-16T23:51:14.705Z,2.52
2019-02-16T23:53:47.359Z,2.66
2019-02-16T23:56:20.661Z,2.82
2019-02-16T23:58:56.504Z,3.00
